Lay, Colorado
Current Conditions -  °F | °C
As of 7:53 AM on Wednesday 26 Nov 2014 (Local Time) from KCAG Reporting Station
Broken Clouds Broken Clouds  
Wind Chill: 27°   Ceiling: 4900
Heat Index: 27°   Visibility: 10mi
Dew Point: 24°   Wind: 0mph
Humidity: 89%   Direction: NA
Pressure: 30.29"   Gusts: NA
Location:  40.7169°N, 107.713°W
Report Text: KCAG 261453Z AUTO 00000KT 10SM BKN049 M03/M04 A3029 RMK AO2 SLP294 T10281044 53011
Loading
Personal Weather Stations






























Interactive Weather Map New forecast layout! Learn more

10-Day Weather Forecast

Advertisements
Track Severe Weather on mobile